YNL weather

Points North Landing Airport
Points North Landing, Saskatchewan, Canada

Public forecast

Using degrees Celsius for public forecast. Weather courtesy of forecast.io.

Closest aviation weather report (METAR) to Points North Landing Airport

Closest report is Key Lake Airport, 78.6 nm (145.5 km) SW. Retrieved 2019/11/17 19:43 UTC (0 seconds ago):

CYKJ 171943Z AUTO 17008KT 9SM -SN M00/M01 A2939 RMK CLD MISG SLP984

Closest aviation forecast (TAF) to Points North Landing Airport

Closest forecast is Key Lake Airport, 78.6 nm (145.5 km) SW. Retrieved 2019/11/17 19:00 UTC (33 minutes ago):

TAF CYKJ 171838Z 1719/1724 20010G20KT P6SM BKN040 TEMPO 1719/1722 2SM -SN BR BKN012 FM172200 18008KT 1SM -SN OVC006 TEMPO 1722/1724 3SM -SN OVC012 RMK FCST BASED ON AUTO OBS NXT FCST WILL BE ISSUED AT 180945Z